Time;durP1;ratioP1;P1;durP2;ratioP2;P2;SDS_P1;SDS_P2;PMS_P1;PMS_P2;Temp;Humidity;BMP_temperature;BMP_pressure;BME280_temperature;BME280_humidity;BME280_pressure;Samples;Min_cycle;Max_cycle;Signal;HPM_P1;HPM_P2
2021/03/09 00:01:40;;;;;;;7.37;2.20;;;0.40;99.90;;;;;;6212396;23;20563;-80
2021/03/09 00:04:05;;;;;;;4.97;1.80;;;0.40;99.90;;;;;;6212583;23;20152;-80
2021/03/09 00:06:31;;;;;;;8.50;2.30;;;0.40;99.90;;;;;;6212652;23;20500;-82
2021/03/09 00:08:56;;;;;;;7.63;2.37;;;0.40;99.90;;;;;;6187463;23;20588;-80
2021/03/09 00:11:21;;;;;;;9.97;2.30;;;0.40;99.90;;;;;;6212421;23;20182;-80
2021/03/09 00:13:47;;;;;;;7.60;2.23;;;0.40;99.90;;;;;;6212458;23;20168;-80
2021/03/09 00:16:13;;;;;;;6.67;2.37;;;0.40;99.90;;;;;;6212684;23;20171;-79
2021/03/09 00:18:38;;;;;;;5.37;1.80;;;0.40;99.90;;;;;;6212629;23;20175;-79
2021/03/09 00:21:04;;;;;;;6.57;1.77;;;0.50;99.90;;;;;;6212340;23;20270;-79
2021/03/09 00:23:29;;;;;;;8.67;2.10;;;0.50;99.90;;;;;;6212585;23;20643;-80
2021/03/09 00:25:56;;;;;;;5.80;2.00;;;0.40;99.90;;;;;;6212800;23;20159;-78
2021/03/09 00:28:22;;;;;;;5.20;1.80;;;0.40;99.90;;;;;;6212135;23;20174;-79
2021/03/09 00:30:47;;;;;;;8.53;1.93;;;0.40;99.90;;;;;;6214183;23;20505;-79
2021/03/09 00:33:13;;;;;;;6.53;1.90;;;0.40;99.90;;;;;;6214361;23;20371;-79
2021/03/09 00:35:38;;;;;;;5.60;1.80;;;0.30;99.90;;;;;;6214492;23;20233;-79
2021/03/09 00:38:04;;;;;;;5.60;1.80;;;0.30;99.90;;;;;;6214359;23;20496;-79
2021/03/09 00:40:29;;;;;;;5.27;1.97;;;0.30;99.90;;;;;;6213947;23;20155;-79
2021/03/09 00:42:55;;;;;;;5.97;1.77;;;0.40;99.90;;;;;;6189047;23;20147;-79
2021/03/09 00:45:20;;;;;;;8.03;2.10;;;0.40;99.90;;;;;;6214277;23;20156;-80
2021/03/09 00:47:47;;;;;;;6.50;1.87;;;0.40;99.90;;;;;;6189362;23;20159;-79
2021/03/09 00:50:13;;;;;;;5.77;2.10;;;0.40;99.90;;;;;;6214333;23;20156;-79
2021/03/09 00:52:38;;;;;;;6.30;2.13;;;0.40;99.90;;;;;;6213904;23;20553;-79
2021/03/09 00:55:04;;;;;;;6.57;1.97;;;0.30;99.90;;;;;;6214069;23;20148;-79
2021/03/09 00:57:30;;;;;;;6.43;1.80;;;0.40;99.90;;;;;;6213999;23;20162;-79
2021/03/09 00:59:55;;;;;;;5.37;1.40;;;0.30;99.90;;;;;;6214009;23;20151;-78
2021/03/09 01:02:21;;;;;;;6.47;1.87;;;0.30;99.90;;;;;;6214025;23;20187;-80
2021/03/09 01:04:46;;;;;;;4.77;1.47;;;0.30;99.90;;;;;;6214004;23;20160;-79
2021/03/09 01:07:12;;;;;;;6.63;2.00;;;0.30;99.90;;;;;;6214218;23;20158;-78
2021/03/09 01:09:37;;;;;;;6.87;1.80;;;0.30;99.90;;;;;;6213769;23;20563;-79
2021/03/09 01:12:03;;;;;;;6.73;1.83;;;0.30;99.90;;;;;;6188768;23;20179;-78
2021/03/09 01:14:29;;;;;;;6.43;1.53;;;0.30;99.90;;;;;;6214008;23;20191;-78
2021/03/09 01:16:54;;;;;;;5.47;1.53;;;0.30;99.90;;;;;;6213985;23;20179;-78
2021/03/09 01:19:20;;;;;;;5.87;2.00;;;0.30;99.90;;;;;;6213863;23;20675;-79
2021/03/09 01:21:45;;;;;;;4.93;1.63;;;0.30;99.90;;;;;;6213736;23;20690;-79
2021/03/09 01:24:11;;;;;;;6.07;1.47;;;0.30;99.90;;;;;;6214092;23;20496;-79
2021/03/09 01:26:37;;;;;;;5.93;1.60;;;0.20;99.90;;;;;;6214316;23;20152;-80
2021/03/09 01:29:02;;;;;;;5.47;1.40;;;0.30;99.90;;;;;;6213441;23;20179;-79
2021/03/09 01:31:28;;;;;;;5.17;1.57;;;0.20;99.90;;;;;;6213689;23;20626;-79
2021/03/09 01:33:53;;;;;;;4.40;1.60;;;0.20;99.90;;;;;;6213793;23;20151;-79
2021/03/09 01:36:19;;;;;;;6.40;1.60;;;0.20;99.90;;;;;;6213863;23;20166;-79
2021/03/09 01:38:44;;;;;;;5.53;1.83;;;0.20;99.90;;;;;;6213772;23;20162;-78
2021/03/09 01:41:11;;;;;;;9.47;1.57;;;0.10;99.90;;;;;;6213751;23;20691;-79
2021/03/09 01:43:37;;;;;;;3.53;1.53;;;0.10;99.90;;;;;;6213050;23;20152;-80
2021/03/09 01:46:02;;;;;;;4.17;1.40;;;0.10;99.90;;;;;;6213627;23;20183;-79
2021/03/09 01:48:34;;;;;;;8.37;1.80;;;0.10;99.90;;;;;;6213379;23;20159;-80
2021/03/09 01:51:00;;;;;;;4.57;1.77;;;0.10;99.90;;;;;;6213463;23;20183;-81
2021/03/09 01:53:26;;;;;;;9.40;1.70;;;0.10;99.90;;;;;;6213829;23;20160;-79
2021/03/09 01:55:51;;;;;;;6.43;1.63;;;0.10;99.90;;;;;;6213663;23;20158;-80
2021/03/09 01:58:18;;;;;;;5.23;1.63;;;0.00;99.90;;;;;;6213375;23;20183;-79
2021/03/09 02:00:43;;;;;;;4.43;1.33;;;0.00;99.90;;;;;;6213475;23;20215;-80
2021/03/09 02:03:09;;;;;;;5.37;1.57;;;0.10;99.90;;;;;;6213466;23;20158;-79
2021/03/09 02:05:35;;;;;;;6.87;2.00;;;0.00;99.90;;;;;;6213583;23;20151;-79
2021/03/09 02:08:01;;;;;;;5.07;1.60;;;0.00;99.90;;;;;;6213468;23;20206;-80
2021/03/09 02:10:27;;;;;;;6.07;1.70;;;0.00;99.90;;;;;;6213127;23;20242;-80
2021/03/09 02:13:32;;;;;;;4.40;1.40;;;0.00;99.90;;;;;;6213915;23;20215;-79
2021/03/09 02:16:12;;;;;;;5.07;1.40;;;-0.10;99.90;;;;;;6213298;23;20218;-78
2021/03/09 02:18:43;;;;;;;5.03;1.80;;;0.00;99.90;;;;;;6213224;23;20163;-79
2021/03/09 02:21:39;;;;;;;5.67;1.57;;;-0.10;99.90;;;;;;6187904;23;20199;-79
2021/03/09 02:24:43;;;;;;;4.50;1.43;;;-0.10;99.90;;;;;;6188873;23;20155;-79
2021/03/09 02:27:36;;;;;;;5.87;1.60;;;0.00;99.90;;;;;;6188120;23;20151;-80
2021/03/09 02:30:15;;;;;;;4.87;1.60;;;-0.20;99.90;;;;;;6188194;23;20166;-79
2021/03/09 02:32:47;;;;;;;4.63;1.50;;;-0.20;99.90;;;;;;6213303;23;20261;-79
2021/03/09 02:35:17;;;;;;;4.37;1.53;;;-0.20;99.90;;;;;;6213198;23;20501;-78
2021/03/09 02:37:44;;;;;;;5.33;1.70;;;-0.20;99.90;;;;;;6213207;23;20167;-78
2021/03/09 02:40:14;;;;;;;4.83;1.50;;;-0.20;99.90;;;;;;6212985;23;20188;-78
2021/03/09 02:42:47;;;;;;;7.50;1.67;;;-0.30;99.90;;;;;;6213163;23;20191;-78
2021/03/09 02:45:15;;;;;;;3.87;1.40;;;-0.30;99.90;;;;;;6213331;23;20147;-79
2021/03/09 02:47:44;;;;;;;5.50;1.60;;;-0.30;99.90;;;;;;6213323;23;20156;-79
2021/03/09 02:50:12;;;;;;;4.67;1.50;;;-0.20;99.90;;;;;;6212837;23;20238;-79
2021/03/09 02:52:41;;;;;;;5.30;1.70;;;-0.20;99.90;;;;;;6212741;23;20266;-79
2021/03/09 02:55:10;;;;;;;5.37;1.47;;;-0.20;99.90;;;;;;6212974;23;20156;-80
2021/03/09 02:57:37;;;;;;;4.87;1.70;;;-0.40;99.90;;;;;;6213239;23;20173;-79
2021/03/09 03:00:03;;;;;;;5.10;1.47;;;-0.40;99.90;;;;;;6212806;23;20678;-80
2021/03/09 03:02:33;;;;;;;4.70;1.43;;;-0.40;99.90;;;;;;6213305;23;20415;-79
2021/03/09 03:04:58;;;;;;;4.87;1.40;;;-0.30;99.90;;;;;;6213218;23;20151;-79
2021/03/09 03:07:24;;;;;;;3.27;1.27;;;-0.40;99.90;;;;;;6188135;23;20525;-80
2021/03/09 03:09:50;;;;;;;5.33;1.50;;;-0.30;99.90;;;;;;6187708;23;20255;-80
2021/03/09 03:12:16;;;;;;;4.40;1.43;;;-0.30;99.90;;;;;;6212755;23;20619;-81
2021/03/09 03:14:43;;;;;;;3.73;1.40;;;-0.30;99.90;;;;;;6212947;23;20156;-79
2021/03/09 03:17:12;;;;;;;7.23;1.70;;;-0.30;99.90;;;;;;6212745;23;20616;-80
2021/03/09 03:19:40;;;;;;;6.97;1.80;;;-0.30;99.90;;;;;;6213086;23;20424;-79
2021/03/09 03:22:06;;;;;;;5.23;1.60;;;-0.40;99.90;;;;;;6212854;23;20624;-79
2021/03/09 03:24:32;;;;;;;4.77;1.20;;;-0.50;99.90;;;;;;6213065;23;20152;-83
2021/03/09 03:26:58;;;;;;;5.90;1.50;;;-0.40;99.90;;;;;;6213182;23;20187;-80
2021/03/09 03:29:24;;;;;;;5.03;1.53;;;-0.40;99.90;;;;;;6212797;23;20159;-78
2021/03/09 03:31:50;;;;;;;3.93;1.20;;;-0.40;99.90;;;;;;6212999;23;20190;-79
2021/03/09 03:34:16;;;;;;;5.17;1.40;;;-0.40;99.90;;;;;;6213096;23;20480;-79
2021/03/09 03:36:42;;;;;;;4.23;1.20;;;-0.40;99.90;;;;;;6213006;23;20163;-79
2021/03/09 03:39:08;;;;;;;6.97;1.40;;;-0.40;99.90;;;;;;6187709;23;20160;-80
2021/03/09 03:41:34;;;;;;;7.47;1.37;;;-0.40;99.90;;;;;;6212787;23;20183;-79
2021/03/09 03:43:59;;;;;;;6.17;1.63;;;-0.40;99.90;;;;;;6212036;23;20162;-79
2021/03/09 03:46:26;;;;;;;4.27;1.40;;;-0.40;99.90;;;;;;6212992;23;20152;-80
2021/03/09 03:48:51;;;;;;;3.73;1.37;;;-0.40;99.90;;;;;;6214034;23;20152;-80
2021/03/09 03:51:18;;;;;;;5.47;1.20;;;-0.50;99.90;;;;;;6212842;23;20172;-80
2021/03/09 03:54:06;;;;;;;6.03;1.67;;;-0.50;99.90;;;;;;6187798;23;20156;-79
2021/03/09 03:56:53;;;;;;;6.77;1.50;;;-0.60;99.90;;;;;;6188041;23;20159;-79
2021/03/09 03:59:26;;;;;;;4.30;1.20;;;-0.50;99.90;;;;;;6212881;23;20159;-78
2021/03/09 04:01:53;;;;;;;5.17;1.37;;;-0.70;99.90;;;;;;6213244;23;20183;-78
2021/03/09 04:04:24;;;;;;;3.83;1.20;;;-0.70;99.90;;;;;;6214795;23;20163;-78
2021/03/09 04:06:53;;;;;;;5.27;1.23;;;-0.70;99.90;;;;;;6215205;23;20148;-79
2021/03/09 04:09:19;;;;;;;4.90;1.27;;;-0.60;99.90;;;;;;6214937;23;20151;-78
2021/03/09 04:11:47;;;;;;;5.07;1.57;;;-0.60;99.90;;;;;;6216487;23;20250;-78
2021/03/09 04:14:14;;;;;;;8.23;1.30;;;-0.60;99.90;;;;;;6214959;23;20612;-78
2021/03/09 04:16:42;;;;;;;4.03;1.17;;;-0.70;99.90;;;;;;6214568;23;20175;-78
2021/03/09 04:19:11;;;;;;;6.67;1.23;;;-0.70;99.90;;;;;;6216060;23;20171;-79
2021/03/09 04:21:37;;;;;;;3.80;1.20;;;-0.80;99.90;;;;;;6214668;23;20188;-79
2021/03/09 04:24:04;;;;;;;5.60;1.40;;;-0.70;99.90;;;;;;6214805;23;20178;-78
2021/03/09 04:26:30;;;;;;;3.73;1.50;;;-0.70;99.90;;;;;;6216035;23;20148;-79
2021/03/09 04:28:57;;;;;;;5.67;1.60;;;-0.70;99.90;;;;;;6214840;23;20214;-79
2021/03/09 04:31:24;;;;;;;3.43;1.10;;;-0.70;99.90;;;;;;6215793;23;20562;-80
2021/03/09 04:33:50;;;;;;;5.10;1.40;;;-0.70;99.90;;;;;;6189647;23;20531;-79
2021/03/09 04:36:17;;;;;;;4.30;1.50;;;-0.70;99.90;;;;;;6214736;23;20155;-79
2021/03/09 04:38:44;;;;;;;5.00;1.40;;;-0.70;99.90;;;;;;6214362;23;20592;-80
2021/03/09 04:41:11;;;;;;;4.13;1.23;;;-0.70;99.90;;;;;;6214646;23;20194;-79
2021/03/09 04:43:38;;;;;;;7.00;1.67;;;-0.70;99.90;;;;;;6214968;23;20182;-79
2021/03/09 04:46:03;;;;;;;7.13;1.70;;;-0.70;99.90;;;;;;6214782;23;20179;-79
2021/03/09 04:48:29;;;;;;;6.70;1.40;;;-0.70;99.90;;;;;;6215018;23;20600;-78
2021/03/09 04:51:03;;;;;;;4.53;1.40;;;-0.70;99.90;;;;;;6215457;23;20207;-79
2021/03/09 04:53:30;;;;;;;6.73;1.67;;;-0.80;99.90;;;;;;6214801;23;20234;-78
2021/03/09 04:55:57;;;;;;;5.33;1.53;;;-0.80;99.90;;;;;;6214524;23;20217;-78
2021/03/09 04:58:23;;;;;;;8.60;1.50;;;-0.80;99.90;;;;;;6214707;23;20163;-78
2021/03/09 05:00:48;;;;;;;5.10;1.50;;;-0.80;99.90;;;;;;6215404;23;20188;-78
2021/03/09 05:03:14;;;;;;;5.60;1.30;;;-0.80;99.90;;;;;;6215803;23;20183;-79
2021/03/09 05:05:39;;;;;;;5.40;1.23;;;-0.80;99.90;;;;;;6215644;23;20199;-79
2021/03/09 05:08:05;;;;;;;4.33;1.23;;;-0.80;99.90;;;;;;6215714;23;20226;-79
2021/03/09 05:10:30;;;;;;;3.60;1.00;;;-0.80;99.90;;;;;;6215465;23;20202;-79
2021/03/09 05:12:56;;;;;;;4.43;1.20;;;-0.80;99.90;;;;;;6215442;23;20158;-79
2021/03/09 05:15:23;;;;;;;5.63;1.60;;;-0.80;99.90;;;;;;6215055;23;20151;-78
2021/03/09 05:17:48;;;;;;;8.00;1.10;;;-0.90;99.90;;;;;;6214340;23;20175;-78
2021/03/09 05:20:15;;;;;;;10.80;1.50;;;-0.80;99.90;;;;;;6214381;23;20175;-78
2021/03/09 05:22:41;;;;;;;4.33;1.33;;;-0.90;99.90;;;;;;6214351;23;20696;-79
2021/03/09 05:25:09;;;;;;;4.17;1.30;;;-0.90;99.90;;;;;;6214849;23;20179;-79
2021/03/09 05:27:35;;;;;;;5.17;1.43;;;-0.80;99.90;;;;;;6216243;23;20231;-79
2021/03/09 05:30:00;;;;;;;3.83;1.43;;;-0.80;99.90;;;;;;6189531;23;20179;-78
2021/03/09 05:32:26;;;;;;;4.17;1.30;;;-0.90;99.90;;;;;;6214456;23;20511;-79
2021/03/09 05:34:51;;;;;;;4.73;1.30;;;-0.90;99.90;;;;;;6214747;23;20159;-78
2021/03/09 05:37:17;;;;;;;5.43;1.33;;;-0.90;99.90;;;;;;6214423;23;20243;-78
2021/03/09 05:39:44;;;;;;;7.97;1.73;;;-0.90;99.90;;;;;;6214592;23;20152;-79
2021/03/09 05:42:09;;;;;;;4.77;1.27;;;-1.00;99.90;;;;;;6213817;23;20234;-79
2021/03/09 05:44:37;;;;;;;5.40;1.70;;;-1.00;99.90;;;;;;6214245;23;20152;-78
2021/03/09 05:47:04;;;;;;;5.30;1.47;;;-1.00;99.90;;;;;;6214451;23;20651;-79
2021/03/09 05:49:30;;;;;;;5.60;1.33;;;-1.00;99.90;;;;;;6214154;23;20163;-78
2021/03/09 05:52:01;;;;;;;7.27;1.50;;;-1.10;99.90;;;;;;6210632;23;20176;-79
2021/03/09 05:54:30;;;;;;;6.50;1.63;;;-1.00;99.90;;;;;;6213923;23;20162;-79
2021/03/09 05:56:56;;;;;;;7.53;1.10;;;-1.10;99.90;;;;;;6213507;23;20175;-77
2021/03/09 05:59:22;;;;;;;3.83;1.27;;;-1.00;99.90;;;;;;6213592;23;20162;-77
2021/03/09 06:01:48;;;;;;;4.87;1.20;;;-1.10;99.90;;;;;;6213608;23;20250;-78
2021/03/09 06:04:14;;;;;;;4.73;1.47;;;-1.20;99.90;;;;;;6211951;23;20239;-77
2021/03/09 06:06:40;;;;;;;4.07;1.17;;;-1.20;99.90;;;;;;6213589;23;20194;-79
2021/03/09 06:09:41;;;;;;;3.00;1.27;;;-1.20;99.90;;;;;;6213406;23;20574;-79
2021/03/09 06:12:20;;;;;;;6.33;1.30;;;-1.10;99.90;;;;;;6175024;23;20182;-78
2021/03/09 06:14:59;;;;;;;5.93;1.27;;;-1.10;99.90;;;;;;6213369;23;20155;-78
2021/03/09 06:17:39;;;;;;;6.87;1.50;;;-1.00;99.90;;;;;;6223004;23;20538;-80
2021/03/09 06:20:06;;;;;;;4.60;1.33;;;-1.00;99.90;;;;;;6211627;23;20226;-78
2021/03/09 06:22:50;;;;;;;5.30;1.37;;;-1.00;99.90;;;;;;6211861;23;20183;-79
2021/03/09 06:25:22;;;;;;;5.23;1.50;;;-0.90;99.90;;;;;;6211925;23;20230;-77
2021/03/09 06:27:48;;;;;;;4.53;1.50;;;-0.90;99.90;;;;;;6212311;23;20527;-77
2021/03/09 06:30:24;;;;;;;4.27;1.37;;;-0.90;99.90;;;;;;6212069;23;20151;-78
2021/03/09 06:32:50;;;;;;;5.23;1.67;;;-0.90;99.90;;;;;;6187270;23;20169;-78
2021/03/09 06:35:39;;;;;;;4.63;1.53;;;-0.80;99.90;;;;;;6187512;23;20237;-78
2021/03/09 06:38:21;;;;;;;6.33;1.60;;;-0.70;99.90;;;;;;6212838;23;20156;-80
2021/03/09 06:41:12;;;;;;;4.33;1.53;;;-0.70;99.90;;;;;;6211694;23;20234;-79
2021/03/09 06:43:59;;;;;;;3.50;1.40;;;-0.70;99.90;;;;;;6186089;23;20227;-79
2021/03/09 06:46:25;;;;;;;5.07;1.63;;;-0.60;99.90;;;;;;6212543;23;20179;-79
2021/03/09 06:48:53;;;;;;;7.30;1.70;;;-0.60;99.90;;;;;;6212984;23;20151;-78
2021/03/09 06:51:32;;;;;;;6.73;1.33;;;-0.60;99.90;;;;;;6215269;23;20611;-79
2021/03/09 06:54:04;;;;;;;46.00;2.30;;;-0.50;99.90;;;;;;6213086;23;20618;-78
2021/03/09 06:56:30;;;;;;;3.77;1.20;;;-0.40;99.90;;;;;;6209979;23;20155;-78
2021/03/09 06:58:58;;;;;;;4.30;1.40;;;-0.30;99.90;;;;;;6210950;23;20238;-76
2021/03/09 07:01:26;;;;;;;7.83;1.70;;;-0.30;99.90;;;;;;6210445;23;20179;-79
2021/03/09 07:03:51;;;;;;;5.90;1.80;;;-0.30;99.90;;;;;;6212894;23;20657;-79
2021/03/09 07:06:17;;;;;;;7.03;1.80;;;-0.20;99.90;;;;;;6209859;23;20151;-82
2021/03/09 07:08:43;;;;;;;5.50;1.83;;;-0.20;99.90;;;;;;6187067;23;20158;-79
2021/03/09 07:11:09;;;;;;;4.67;1.80;;;-0.10;99.90;;;;;;6213369;23;20175;-78
2021/03/09 07:13:38;;;;;;;9.80;1.87;;;0.00;99.90;;;;;;6210317;23;20162;-79
2021/03/09 07:16:04;;;;;;;5.60;1.73;;;0.00;99.90;;;;;;6210349;23;20197;-80
2021/03/09 07:18:34;;;;;;;6.30;1.70;;;0.10;99.90;;;;;;6186633;23;20544;-80
2021/03/09 07:21:00;;;;;;;3.87;1.73;;;0.10;99.90;;;;;;6210662;23;20183;-79
2021/03/09 07:23:26;;;;;;;4.63;1.53;;;0.00;99.90;;;;;;6214746;23;20148;-80
2021/03/09 07:25:57;;;;;;;5.57;1.70;;;0.00;99.90;;;;;;6212550;23;20555;-79
2021/03/09 07:28:29;;;;;;;4.87;1.43;;;0.00;99.90;;;;;;6210330;23;20155;-80
2021/03/09 07:31:03;;;;;;;3.70;1.30;;;0.10;99.90;;;;;;6209967;23;20267;-78
2021/03/09 07:33:30;;;;;;;4.80;1.40;;;0.30;99.90;;;;;;6212541;23;20167;-84
2021/03/09 07:35:56;;;;;;;5.70;1.80;;;0.50;99.90;;;;;;6210265;23;20187;-80
2021/03/09 07:38:23;;;;;;;6.13;1.80;;;0.60;99.90;;;;;;6186172;23;20159;-79
2021/03/09 07:40:49;;;;;;;6.60;1.60;;;0.70;99.90;;;;;;6212281;23;20202;-80
2021/03/09 07:43:15;;;;;;;6.10;1.93;;;0.90;99.90;;;;;;6214173;23;20183;-79
2021/03/09 07:45:42;;;;;;;4.73;1.73;;;1.00;99.90;;;;;;6212534;23;20235;-82
2021/03/09 07:48:21;;;;;;;6.17;1.80;;;1.20;99.90;;;;;;6184769;23;20211;-80
2021/03/09 07:50:48;;;;;;;5.90;2.07;;;1.30;99.90;;;;;;6212275;23;20257;-79
2021/03/09 07:53:17;;;;;;;4.60;1.57;;;1.30;99.90;;;;;;6212599;23;20536;-81
2021/03/09 07:55:46;;;;;;;5.30;2.10;;;1.30;99.90;;;;;;6212526;23;20156;-79
2021/03/09 07:58:20;;;;;;;5.77;1.80;;;1.40;99.90;;;;;;6212308;23;20151;-80
2021/03/09 08:00:56;;;;;;;7.47;1.90;;;1.50;99.90;;;;;;6186968;23;20742;-81
2021/03/09 08:03:30;;;;;;;5.90;1.70;;;1.60;99.90;;;;;;6189091;23;20576;-81
2021/03/09 08:06:03;;;;;;;5.37;1.57;;;1.70;99.90;;;;;;6213172;23;20163;-80
2021/03/09 08:08:45;;;;;;;4.13;1.70;;;1.80;99.90;;;;;;6213135;23;20151;-81
2021/03/09 08:11:14;;;;;;;4.67;1.63;;;2.00;99.90;;;;;;6212551;23;20179;-81
2021/03/09 08:13:41;;;;;;;6.57;1.83;;;2.20;99.90;;;;;;6186899;23;20194;-82
2021/03/09 08:16:24;;;;;;;8.47;2.03;;;2.20;99.90;;;;;;6215553;23;20155;-82
2021/03/09 08:18:52;;;;;;;9.33;2.23;;;2.30;99.90;;;;;;6189956;23;20156;-81
2021/03/09 08:21:19;;;;;;;4.77;1.73;;;2.40;99.90;;;;;;6214033;23;20211;-85
2021/03/09 08:23:44;;;;;;;5.93;1.80;;;2.50;99.90;;;;;;6212803;23;20522;-80
2021/03/09 08:26:19;;;;;;;5.47;1.83;;;2.60;99.90;;;;;;6188211;23;20663;-81
2021/03/09 08:28:46;;;;;;;9.37;2.00;;;2.70;99.90;;;;;;6188370;23;20159;-80
2021/03/09 08:31:12;;;;;;;6.50;1.73;;;2.80;99.90;;;;;;6211405;23;20183;-80
2021/03/09 08:33:54;;;;;;;5.33;2.00;;;2.90;99.90;;;;;;6188591;23;20160;-80
2021/03/09 08:36:20;;;;;;;5.67;1.87;;;2.90;99.90;;;;;;6212694;23;20230;-81
2021/03/09 08:39:01;;;;;;;6.43;1.70;;;3.10;99.90;;;;;;6187707;23;20183;-81
2021/03/09 08:41:48;;;;;;;6.97;2.00;;;3.10;99.90;;;;;;6187667;23;20187;-80
2021/03/09 08:44:14;;;;;;;5.53;1.57;;;3.30;99.90;;;;;;6212271;23;20584;-81
2021/03/09 08:46:56;;;;;;;14.90;2.37;;;3.40;99.90;;;;;;6187564;23;20186;-82
2021/03/09 08:49:44;;;;;;;8.10;1.80;;;3.40;99.90;;;;;;6212217;23;20226;-81
2021/03/09 08:52:11;;;;;;;6.73;2.40;;;3.60;99.90;;;;;;6216934;23;20231;-83
2021/03/09 08:54:50;;;;;;;8.90;2.30;;;3.60;99.90;;;;;;6217588;23;20870;-81
2021/03/09 08:57:18;;;;;;;5.43;2.00;;;3.70;99.90;;;;;;6213023;23;20154;-81
2021/03/09 08:59:53;;;;;;;6.07;2.10;;;3.70;99.90;;;;;;6187406;23;20183;-83
2021/03/09 09:02:19;;;;;;;5.03;1.77;;;3.70;99.90;;;;;;6213412;23;20922;-81
2021/03/09 09:04:56;;;;;;;5.47;2.10;;;3.80;99.90;;;;;;6187482;23;20622;-81
2021/03/09 09:07:36;;;;;;;8.10;2.40;;;3.90;99.90;;;;;;6213785;23;20570;-82
2021/03/09 09:10:15;;;;;;;5.50;1.90;;;4.00;99.90;;;;;;6214457;23;20144;-81
2021/03/09 09:12:45;;;;;;;5.37;1.77;;;4.10;99.90;;;;;;6212598;23;20234;-82
2021/03/09 09:15:15;;;;;;;7.80;1.70;;;4.10;99.90;;;;;;6213522;23;20148;-81
2021/03/09 09:17:49;;;;;;;5.67;1.90;;;4.30;99.90;;;;;;6188327;23;20233;-79
2021/03/09 09:20:37;;;;;;;5.37;2.20;;;4.40;99.90;;;;;;6188100;23;20667;-81
2021/03/09 09:23:20;;;;;;;6.03;2.23;;;4.50;99.90;;;;;;6211624;23;20195;-79
2021/03/09 09:25:48;;;;;;;5.30;1.90;;;4.60;99.90;;;;;;6212966;23;20148;-81
2021/03/09 09:28:25;;;;;;;5.53;1.93;;;4.60;99.90;;;;;;6213677;23;20163;-81
2021/03/09 09:30:53;;;;;;;7.90;2.10;;;4.70;99.90;;;;;;6212555;23;20236;-81
2021/03/09 09:33:19;;;;;;;7.90;2.10;;;4.70;99.90;;;;;;6188360;23;20160;-80
2021/03/09 09:35:47;;;;;;;5.50;2.13;;;4.90;99.90;;;;;;6212454;23;20243;-80
2021/03/09 09:38:17;;;;;;;5.63;1.87;;;5.10;99.90;;;;;;6213025;23;20165;-80
2021/03/09 09:40:45;;;;;;;5.40;2.17;;;5.10;99.90;;;;;;6212233;23;20203;-80
2021/03/09 09:43:17;;;;;;;6.30;2.30;;;5.20;99.90;;;;;;6211697;23;20176;-81
2021/03/09 09:45:54;;;;;;;6.27;2.30;;;5.20;99.90;;;;;;6212337;23;20152;-81
2021/03/09 09:48:22;;;;;;;5.90;2.03;;;5.20;99.90;;;;;;6213001;23;20195;-81
2021/03/09 09:50:53;;;;;;;7.40;2.50;;;5.30;99.90;;;;;;6211384;23;20200;-80
2021/03/09 09:53:39;;;;;;;6.73;2.10;;;5.50;99.90;;;;;;6186905;23;20473;-80
2021/03/09 09:56:07;;;;;;;6.33;2.07;;;5.40;99.90;;;;;;6213365;23;20637;-81
2021/03/09 09:58:50;;;;;;;6.13;2.10;;;5.40;99.90;;;;;;6212262;23;20152;-80
2021/03/09 10:01:22;;;;;;;6.17;2.20;;;5.50;99.90;;;;;;6212375;23;20185;-81
2021/03/09 10:03:50;;;;;;;6.07;2.40;;;5.60;99.90;;;;;;6211805;23;20174;-82
2021/03/09 10:06:17;;;;;;;6.70;2.27;;;5.70;99.90;;;;;;6188135;23;20155;-82
2021/03/09 10:09:31;;;;;;;6.27;2.20;;;5.70;99.90;;;;;;6210718;23;20234;-80
2021/03/09 10:11:58;;;;;;;6.43;2.13;;;5.80;99.30;;;;;;6162671;23;20182;-81
2021/03/09 10:14:26;;;;;;;5.70;1.93;;;5.90;99.60;;;;;;6212496;23;20160;-79
2021/03/09 10:16:53;;;;;;;5.80;1.90;;;6.00;99.90;;;;;;6212400;23;20178;-82
2021/03/09 10:19:21;;;;;;;7.63;2.27;;;6.10;99.90;;;;;;6210014;23;20851;-82
2021/03/09 10:21:50;;;;;;;4.37;1.80;;;6.20;99.90;;;;;;6205196;23;20217;-83
2021/03/09 10:24:29;;;;;;;5.27;1.93;;;6.30;99.10;;;;;;6208772;23;20156;-80
2021/03/09 10:26:55;;;;;;;6.37;2.13;;;6.20;98.30;;;;;;6207032;23;20159;-83
2021/03/09 10:29:23;;;;;;;6.33;1.80;;;6.30;97.40;;;;;;6207258;23;20158;-82
2021/03/09 10:31:51;;;;;;;6.33;2.60;;;6.00;97.10;;;;;;6186139;23;20178;-82
2021/03/09 10:34:18;;;;;;;4.83;1.93;;;5.90;98.50;;;;;;6213226;23;20477;-82
2021/03/09 10:36:52;;;;;;;6.10;2.10;;;6.10;98.90;;;;;;6210865;23;20163;-82
2021/03/09 10:39:18;;;;;;;4.87;1.83;;;6.20;98.40;;;;;;6212167;23;20168;-80
2021/03/09 10:41:44;;;;;;;7.20;2.60;;;6.30;98.70;;;;;;6186616;23;20208;-82
2021/03/09 10:44:33;;;;;;;6.60;2.33;;;6.50;98.70;;;;;;6211453;23;20195;-81
2021/03/09 10:47:00;;;;;;;5.17;2.10;;;6.40;98.90;;;;;;6211868;23;20161;-81
2021/03/09 10:49:27;;;;;;;5.20;2.10;;;6.40;98.50;;;;;;6212423;23;20162;-81
2021/03/09 10:52:04;;;;;;;8.80;2.50;;;6.40;99.20;;;;;;6211500;23;20179;-80
2021/03/09 10:54:30;;;;;;;8.67;2.83;;;6.50;98.90;;;;;;6210649;23;20163;-81
2021/03/09 10:56:57;;;;;;;6.33;2.27;;;6.50;96.90;;;;;;6211918;23;20324;-81
2021/03/09 10:59:23;;;;;;;5.80;2.50;;;6.40;98.80;;;;;;6210611;23;20184;-81
2021/03/09 11:01:49;;;;;;;6.03;2.30;;;6.40;99.40;;;;;;6211207;23;20190;-79
2021/03/09 11:04:14;;;;;;;7.43;2.90;;;6.40;98.80;;;;;;6211851;23;20190;-80
2021/03/09 11:06:40;;;;;;;6.83;2.63;;;6.60;98.50;;;;;;6210962;23;20521;-80
2021/03/09 11:09:06;;;;;;;7.03;2.27;;;6.50;98.70;;;;;;6211474;23;20222;-81
2021/03/09 11:11:31;;;;;;;6.27;2.43;;;6.60;96.10;;;;;;6211816;23;20210;-80
2021/03/09 11:13:57;;;;;;;8.13;2.80;;;6.80;98.00;;;;;;6212282;23;20155;-82
2021/03/09 11:16:23;;;;;;;10.07;3.47;;;6.70;99.50;;;;;;6214133;23;20175;-81
2021/03/09 11:18:49;;;;;;;7.37;2.93;;;6.80;98.70;;;;;;6215735;23;20139;-81
2021/03/09 11:24:37;;;;;;;7.17;2.97;;;6.80;96.10;;;;;;6215654;23;20193;-81
2021/03/09 11:27:04;;;;;;;6.07;2.53;;;6.90;98.40;;;;;;6188997;23;20156;-82
2021/03/09 11:29:31;;;;;;;7.30;2.77;;;7.10;97.50;;;;;;6188944;23;20154;-82
2021/03/09 11:31:57;;;;;;;8.40;3.50;;;7.20;96.80;;;;;;6214102;23;20234;-81
2021/03/09 11:34:23;;;;;;;8.73;3.10;;;7.30;97.40;;;;;;6214106;23;20666;-82
2021/03/09 11:36:52;;;;;;;7.93;2.87;;;7.30;94.30;;;;;;6214254;23;20152;-82
2021/03/09 11:39:18;;;;;;;7.27;3.03;;;7.30;97.70;;;;;;6214115;23;20238;-81
2021/03/09 11:41:44;;;;;;;7.97;3.00;;;7.40;95.90;;;;;;6214273;23;20193;-82
2021/03/09 11:44:10;;;;;;;8.70;3.57;;;7.50;97.30;;;;;;6215764;23;20160;-81
2021/03/09 11:46:37;;;;;;;8.87;3.40;;;7.60;97.50;;;;;;6214130;23;20584;-82
2021/03/09 11:49:04;;;;;;;7.60;3.40;;;7.70;98.30;;;;;;6214301;23;20210;-81
2021/03/09 11:51:30;;;;;;;8.13;3.37;;;7.80;96.10;;;;;;6214374;23;20179;-81
2021/03/09 11:53:55;;;;;;;9.53;3.53;;;7.70;94.80;;;;;;6214405;23;20173;-82
2021/03/09 11:56:23;;;;;;;8.93;3.00;;;7.50;96.20;;;;;;6215095;23;20163;-81
2021/03/09 11:58:49;;;;;;;9.73;3.50;;;7.50;96.20;;;;;;6214939;23;20285;-82
2021/03/09 12:04:37;;;;;;;10.77;3.50;;;7.60;96.30;;;;;;6217184;23;20160;-82
2021/03/09 12:07:07;;;;;;;9.70;3.80;;;7.50;96.10;;;;;;6192027;23;20160;-82
2021/03/09 12:09:34;;;;;;;9.50;3.57;;;7.70;97.30;;;;;;6221170;23;20152;-82
2021/03/09 12:12:21;;;;;;;8.73;3.23;;;7.70;95.90;;;;;;6192227;23;20190;-82
2021/03/09 12:14:47;;;;;;;7.33;2.90;;;7.40;96.70;;;;;;6215850;23;20210;-82
2021/03/09 12:17:13;;;;;;;10.57;3.80;;;7.30;95.40;;;;;;6215341;23;20171;-81
2021/03/09 12:23:12;;;;;;;8.77;3.23;;;7.30;95.70;;;;;;6217678;23;20187;-81
2021/03/09 12:25:39;;;;;;;9.73;3.43;;;7.10;97.00;;;;;;6217802;23;20262;-81
2021/03/09 12:34:50;;;;;;;10.07;3.80;;;7.50;95.70;;;;;;6177094;23;20180;-88
2021/03/09 12:37:55;;;;;;;8.30;3.43;;;7.50;96.50;;;;;;6191405;23;20136;-88
2021/03/09 12:47:33;;;;;;;9.43;3.67;;;8.10;95.70;;;;;;6217147;23;20113;-89
2021/03/09 12:49:59;;;;;;;13.20;4.87;;;8.30;96.50;;;;;;6191442;23;20116;-87
2021/03/09 13:07:10;;;;;;;9.23;4.00;;;7.70;95.80;;;;;;6181505;23;20202;-86
2021/03/09 13:35:34;;;;;;;11.90;4.97;;;8.10;95.90;;;;;;6190550;23;20176;-86
2021/03/09 15:39:58;;;;;;;11.60;5.23;;;6.10;99.90;;;;;;6222318;23;20179;-87
2021/03/09 16:16:57;;;;;;;9.63;3.40;;;5.40;99.90;;;;;;6150156;23;20186;-87
2021/03/09 16:19:29;;;;;;;9.60;3.93;;;5.40;99.90;;;;;;6217195;23;20112;-87
2021/03/09 16:22:23;;;;;;;7.97;3.97;;;5.30;99.90;;;;;;6210485;23;20203;-86
2021/03/09 17:03:56;;;;;;;8.63;2.95;;;4.80;99.90;;;;;;6212589;22;20398;-83
2021/03/09 17:16:47;;;;;;;6.67;2.60;;;4.50;99.90;;;;;;6207422;23;20183;-82
2021/03/09 17:24:24;;;;;;;10.67;3.20;;;4.60;99.90;;;;;;6240976;22;20195;-82
2021/03/09 17:32:02;;;;;;;5.93;2.60;;;4.60;99.90;;;;;;6202116;22;20192;-82
2021/03/09 17:39:40;;;;;;;9.80;3.30;;;4.50;99.90;;;;;;6214464;22;20187;-82
2021/03/09 17:42:06;;;;;;;7.97;3.20;;;4.40;99.90;;;;;;6163521;23;20220;-82
2021/03/09 17:44:32;;;;;;;7.60;3.07;;;4.40;99.90;;;;;;6138883;23;20192;-82
2021/03/09 17:49:36;;;;;;;8.40;3.40;;;4.40;99.90;;;;;;6204743;23;20175;-83
2021/03/09 17:52:03;;;;;;;7.60;3.03;;;4.40;99.90;;;;;;6178306;23;20191;-81
2021/03/09 17:54:28;;;;;;;8.10;3.30;;;4.40;99.90;;;;;;6172415;23;20252;-82